createdAt,value
2023-04-23T00:00:13.597Z,24.70
2023-04-23T00:04:32.716Z,22.60
2023-04-23T00:08:33.578Z,21.40
2023-04-23T00:12:31.545Z,22.30
2023-04-23T00:16:29.565Z,21.90
2023-04-23T00:20:27.553Z,24.40
2023-04-23T00:24:25.525Z,22.80
2023-04-23T00:28:23.582Z,23.20
2023-04-23T00:32:21.653Z,23.00
2023-04-23T00:36:19.661Z,22.70
2023-04-23T00:40:17.749Z,24.50
2023-04-23T00:44:15.483Z,22.90
2023-04-23T00:48:13.454Z,22.30
2023-04-23T00:52:11.565Z,21.60
2023-04-23T00:56:09.447Z,21.60
2023-04-23T01:00:08.474Z,21.60
2023-04-23T01:04:07.756Z,23.30
2023-04-23T01:08:05.520Z,22.70
2023-04-23T01:12:04.433Z,24.50
2023-04-23T01:16:02.500Z,24.50
2023-04-23T01:20:01.496Z,23.00
2023-04-23T01:23:59.497Z,23.80
2023-04-23T01:27:58.478Z,23.90
2023-04-23T01:31:56.558Z,20.70
2023-04-23T01:35:56.401Z,26.50
2023-04-23T01:39:54.469Z,27.40
2023-04-23T01:43:52.445Z,26.80
2023-04-23T01:47:50.605Z,25.30
2023-04-23T01:51:48.404Z,26.30
2023-04-23T01:55:46.438Z,24.80
2023-04-23T01:59:44.378Z,22.80
2023-04-23T02:03:43.634Z,21.40
2023-04-23T02:07:41.353Z,24.00
2023-04-23T02:11:39.470Z,24.40
2023-04-23T02:15:37.346Z,25.50
2023-04-23T02:19:38.449Z,23.20
2023-04-23T02:23:36.422Z,19.40
2023-04-23T02:27:34.356Z,21.70
2023-04-23T02:31:32.367Z,23.40
2023-04-23T02:35:30.372Z,21.70
2023-04-23T02:39:28.447Z,24.00
2023-04-23T02:43:26.366Z,21.80
2023-04-23T02:47:24.428Z,21.80
2023-04-23T02:51:24.338Z,20.80
2023-04-23T02:55:23.337Z,19.90
2023-04-23T02:59:22.435Z,21.30
2023-04-23T03:03:23.458Z,20.00
2023-04-23T03:07:25.353Z,20.90
2023-04-23T03:11:23.296Z,19.40
2023-04-23T03:15:21.429Z,20.30
2023-04-23T03:19:19.274Z,18.60
2023-04-23T03:23:17.299Z,18.60
2023-04-23T03:27:15.262Z,19.10
2023-04-23T03:31:13.343Z,19.10
2023-04-23T03:35:11.251Z,20.70
2023-04-23T03:39:10.411Z,18.10
2023-04-23T03:43:18.246Z,17.70
2023-04-23T03:47:38.298Z,19.10
2023-04-23T03:51:36.237Z,18.20
2023-04-23T03:55:34.293Z,18.90
2023-04-23T03:59:32.259Z,16.90
2023-04-23T04:03:32.471Z,17.00
2023-04-23T04:07:23.456Z,17.50
2023-04-23T04:11:21.280Z,17.80
2023-04-23T04:15:21.208Z,14.20
2023-04-23T04:19:19.288Z,12.90
2023-04-23T04:23:17.377Z,13.60
2023-04-23T04:27:15.245Z,13.90
2023-04-23T04:31:13.212Z,12.30
2023-04-23T04:35:12.325Z,13.40
2023-04-23T04:39:10.155Z,13.80
2023-04-23T04:43:08.247Z,13.50
2023-04-23T04:47:06.205Z,12.90
2023-04-23T04:51:04.242Z,12.80
2023-04-23T04:55:02.222Z,12.30
2023-04-23T04:59:00.213Z,11.90
2023-04-23T05:02:58.343Z,9.60
2023-04-23T05:06:56.183Z,11.00
2023-04-23T05:10:54.275Z,10.10
2023-04-23T05:14:53.008Z,10.00
2023-04-23T05:18:55.211Z,10.40
2023-04-23T05:22:57.119Z,9.10
2023-04-23T05:26:55.170Z,8.70
2023-04-23T05:30:53.250Z,8.60
2023-04-23T05:34:51.130Z,8.60
2023-04-23T05:38:49.192Z,8.40
2023-04-23T05:42:47.370Z,8.40
2023-04-23T05:46:45.180Z,8.70
2023-04-23T05:50:43.101Z,8.80
2023-04-23T05:54:41.323Z,8.20
2023-04-23T05:58:39.187Z,8.50
2023-04-23T06:02:37.256Z,8.80
2023-04-23T06:06:35.084Z,9.30
2023-04-23T06:10:33.096Z,8.70
2023-04-23T06:14:31.040Z,8.80
2023-04-23T06:18:29.121Z,8.10
2023-04-23T06:22:27.160Z,8.20
2023-04-23T06:26:25.137Z,7.60
2023-04-23T06:30:23.142Z,7.80
2023-04-23T06:34:21.097Z,7.50
2023-04-23T06:38:19.082Z,7.00
2023-04-23T06:42:17.026Z,6.10
2023-04-23T06:46:28.067Z,5.80
2023-04-23T06:50:26.285Z,6.00
2023-04-23T06:54:24.028Z,6.70
2023-04-23T06:58:22.178Z,5.20
2023-04-23T07:02:20.027Z,5.30
2023-04-23T07:06:18.036Z,5.30
2023-04-23T07:10:18.005Z,4.70
2023-04-23T07:14:17.085Z,5.10
2023-04-23T07:18:15.057Z,4.60
2023-04-23T07:22:15.236Z,4.30
2023-04-23T07:26:13.066Z,4.40
2023-04-23T07:30:11.036Z,4.50
2023-04-23T07:34:10.002Z,4.40
2023-04-23T07:38:08.125Z,4.10
2023-04-23T07:42:06.123Z,4.00
2023-04-23T07:46:04.101Z,4.10
2023-04-23T07:50:02.078Z,4.10
2023-04-23T07:54:01.028Z,4.20
2023-04-23T07:57:59.355Z,3.90
2023-04-23T08:01:57.034Z,4.00
2023-04-23T08:05:55.981Z,3.90
2023-04-23T08:09:53.979Z,3.60
2023-04-23T08:13:51.947Z,4.00
2023-04-23T08:17:50.007Z,3.80
2023-04-23T08:21:41.104Z,3.40
2023-04-23T08:25:39.015Z,3.50
2023-04-23T08:29:37.047Z,3.60
2023-04-23T08:33:37.067Z,3.90
2023-04-23T08:37:35.000Z,3.40
2023-04-23T08:41:38.044Z,3.30
2023-04-23T08:45:38.153Z,3.90
2023-04-23T08:49:35.944Z,3.40
2023-04-23T08:53:36.152Z,3.20
2023-04-23T08:57:34.921Z,3.20
2023-04-23T09:01:33.897Z,3.40
2023-04-23T09:05:32.008Z,3.70
2023-04-23T09:09:30.898Z,3.90
2023-04-23T09:13:29.916Z,3.20
2023-04-23T09:17:28.072Z,3.50
2023-04-23T09:21:25.932Z,3.50
2023-04-23T09:25:24.960Z,3.10
2023-04-23T09:29:29.972Z,3.60
2023-04-23T09:33:27.894Z,3.90
2023-04-23T09:37:25.884Z,3.90
2023-04-23T09:41:40.849Z,3.60
2023-04-23T09:45:39.932Z,3.40
2023-04-23T09:49:37.883Z,3.70
2023-04-23T09:53:35.966Z,4.10
2023-04-23T09:57:33.855Z,3.70
2023-04-23T10:01:32.003Z,3.80
2023-04-23T10:05:49.830Z,4.00
2023-04-23T10:09:55.850Z,4.30
2023-04-23T10:13:53.842Z,4.30
2023-04-23T10:17:53.953Z,3.90
2023-04-23T10:21:57.854Z,3.90
2023-04-23T10:26:00.881Z,4.70
2023-04-23T10:30:00.912Z,4.40
2023-04-23T10:33:59.698Z,4.50
2023-04-23T10:37:59.805Z,4.00
2023-04-23T10:41:57.999Z,4.40
2023-04-23T10:45:55.800Z,3.90
2023-04-23T10:49:53.889Z,4.00
2023-04-23T10:53:51.768Z,4.40
2023-04-23T10:58:19.798Z,4.20
2023-04-23T11:02:38.820Z,4.70
2023-04-23T11:07:24.888Z,4.10
2023-04-23T11:11:23.786Z,3.90
2023-04-23T11:15:26.787Z,3.90
2023-04-23T11:19:25.785Z,4.30
2023-04-23T11:23:43.791Z,3.80
2023-04-23T11:27:43.731Z,4.10
2023-04-23T11:31:54.376Z,4.00
2023-04-23T11:35:58.725Z,4.10
2023-04-23T11:40:03.857Z,4.60
2023-04-23T11:44:01.802Z,4.30
2023-04-23T11:48:04.010Z,4.00
2023-04-23T11:52:02.796Z,4.30
2023-04-23T11:56:03.758Z,4.50
2023-04-23T12:00:01.790Z,4.10
2023-04-23T12:04:04.202Z,4.10
2023-04-23T12:08:06.744Z,4.60
2023-04-23T12:12:05.736Z,4.30
2023-04-23T12:16:05.787Z,4.10
2023-04-23T12:20:03.740Z,4.30
2023-04-23T12:24:05.691Z,5.10
2023-04-23T12:28:03.726Z,4.30
2023-04-23T12:32:02.725Z,4.70
2023-04-23T12:36:04.775Z,4.30
2023-04-23T12:40:02.674Z,4.50
2023-04-23T12:44:00.770Z,4.90
2023-04-23T12:47:58.823Z,4.70
2023-04-23T12:51:56.673Z,4.40
2023-04-23T12:55:54.794Z,4.30
2023-04-23T12:59:52.689Z,4.20
2023-04-23T13:03:50.738Z,5.20
2023-04-23T13:07:48.705Z,4.90
2023-04-23T13:11:39.846Z,5.10
2023-04-23T13:15:37.671Z,4.60
2023-04-23T13:19:35.642Z,4.80
2023-04-23T13:23:33.695Z,4.60
2023-04-23T13:27:31.669Z,4.20
2023-04-23T13:31:29.804Z,4.80
2023-04-23T13:35:27.659Z,4.80
2023-04-23T13:39:26.727Z,4.40
2023-04-23T13:43:24.627Z,5.00
2023-04-23T13:47:22.926Z,4.50
2023-04-23T13:51:34.802Z,4.20
2023-04-23T13:55:33.674Z,4.30
2023-04-23T13:59:31.771Z,4.60
2023-04-23T14:03:29.639Z,4.70
2023-04-23T14:07:27.652Z,4.70
2023-04-23T14:11:25.708Z,5.10
2023-04-23T14:15:24.649Z,4.70
2023-04-23T14:19:24.790Z,4.70
2023-04-23T14:24:00.616Z,5.20
2023-04-23T14:28:04.656Z,4.80
2023-04-23T14:32:02.647Z,4.90
2023-04-23T14:36:00.614Z,4.50
2023-04-23T14:39:58.557Z,4.80
2023-04-23T14:43:56.604Z,5.20
2023-04-23T14:47:50.526Z,4.90
2023-04-23T14:51:48.654Z,4.90
2023-04-23T14:55:46.627Z,4.60
2023-04-23T14:59:45.707Z,4.20
2023-04-23T15:03:43.698Z,4.30
2023-04-23T15:07:41.590Z,4.70
2023-04-23T15:11:39.555Z,4.60
2023-04-23T15:15:44.529Z,5.60
2023-04-23T15:19:42.961Z,5.30
2023-04-23T15:23:40.639Z,5.10
2023-04-23T15:27:38.571Z,4.60
2023-04-23T15:31:36.631Z,5.00
2023-04-23T15:35:42.558Z,4.80
2023-04-23T15:39:40.800Z,4.40
2023-04-23T15:43:38.543Z,4.60
2023-04-23T15:47:37.583Z,4.40
2023-04-23T15:51:28.677Z,4.70
2023-04-23T15:55:26.548Z,4.40
2023-04-23T15:59:24.525Z,4.60
2023-04-23T16:03:22.762Z,5.10
2023-04-23T16:07:20.502Z,5.20
2023-04-23T16:11:19.657Z,5.00
2023-04-23T16:15:18.561Z,5.00
2023-04-23T16:19:17.089Z,5.60
2023-04-23T16:23:14.596Z,4.80
2023-04-23T16:27:13.565Z,5.60
2023-04-23T16:31:11.513Z,5.30
2023-04-23T16:35:29.529Z,4.70
2023-04-23T16:39:27.637Z,4.70
2023-04-23T16:43:25.482Z,5.00
2023-04-23T16:47:23.484Z,5.70
2023-04-23T16:51:21.483Z,5.60
2023-04-23T16:55:21.504Z,5.00
2023-04-23T16:59:19.665Z,5.00
2023-04-23T17:03:17.697Z,4.70
2023-04-23T17:07:16.485Z,4.60
2023-04-23T17:11:14.560Z,5.70
2023-04-23T17:15:12.480Z,5.90
2023-04-23T17:19:10.449Z,5.60
2023-04-23T17:23:08.460Z,4.90
2023-04-23T17:27:06.406Z,6.10
2023-04-23T17:31:04.521Z,6.00
2023-04-23T17:35:09.505Z,5.60
2023-04-23T17:39:09.461Z,5.30
2023-04-23T17:43:07.503Z,5.50
2023-04-23T17:47:05.556Z,5.30
2023-04-23T17:51:03.542Z,6.10
2023-04-23T17:55:01.707Z,6.20
2023-04-23T17:58:59.378Z,6.00
2023-04-23T18:02:57.593Z,5.90
2023-04-23T18:06:55.385Z,6.40
2023-04-23T18:10:53.527Z,6.30
2023-04-23T18:14:51.510Z,6.40
2023-04-23T18:18:49.399Z,7.50
2023-04-23T18:22:49.382Z,7.00
2023-04-23T18:26:47.728Z,7.70
2023-04-23T18:30:45.372Z,7.70
2023-04-23T18:34:45.414Z,8.30
2023-04-23T18:38:53.425Z,8.40
2023-04-23T18:42:51.400Z,9.10
2023-04-23T18:46:50.423Z,8.40
2023-04-23T18:50:59.347Z,8.10
2023-04-23T18:54:57.360Z,7.10
2023-04-23T18:58:55.399Z,6.50
2023-04-23T19:02:53.511Z,5.70
2023-04-23T19:06:51.440Z,6.30
2023-04-23T19:10:49.338Z,6.70
2023-04-23T19:14:47.290Z,6.20
2023-04-23T19:18:45.385Z,6.50
2023-04-23T19:22:43.473Z,5.70
2023-04-23T19:26:41.341Z,6.40
2023-04-23T19:30:39.341Z,6.30
2023-04-23T19:34:39.346Z,6.70
2023-04-23T19:38:37.374Z,6.20
2023-04-23T19:42:36.318Z,6.80
2023-04-23T19:46:36.620Z,7.10
2023-04-23T19:50:34.274Z,5.90
2023-04-23T19:54:32.324Z,6.30
2023-04-23T19:58:30.368Z,6.70
2023-04-23T20:02:28.366Z,6.60
2023-04-23T20:06:26.351Z,6.60
2023-04-23T20:10:24.298Z,6.80
2023-04-23T20:14:22.247Z,6.80
2023-04-23T20:18:20.391Z,6.90
2023-04-23T20:22:18.317Z,6.90
2023-04-23T20:26:16.351Z,6.30
2023-04-23T20:30:16.299Z,6.20
2023-04-23T20:34:14.269Z,6.20
2023-04-23T20:38:12.221Z,5.90
2023-04-23T20:42:10.311Z,6.60
2023-04-23T20:46:10.509Z,5.80
2023-04-23T20:50:08.246Z,6.40
2023-04-23T20:54:06.297Z,6.20
2023-04-23T20:58:04.381Z,6.20
2023-04-23T21:02:03.194Z,7.00
2023-04-23T21:06:01.263Z,6.10
2023-04-23T21:09:59.243Z,5.60
2023-04-23T21:13:58.453Z,5.60
2023-04-23T21:17:57.228Z,6.50
2023-04-23T21:21:55.323Z,6.30
2023-04-23T21:25:54.172Z,6.20
2023-04-23T21:29:52.302Z,6.00
2023-04-23T21:33:50.277Z,5.90
2023-04-23T21:37:48.256Z,6.30
2023-04-23T21:41:46.195Z,6.60
2023-04-23T21:45:44.194Z,6.70
2023-04-23T21:49:42.275Z,6.30
2023-04-23T21:53:40.147Z,6.60
2023-04-23T21:57:38.124Z,6.10
2023-04-23T22:01:36.964Z,7.20
2023-04-23T22:05:36.170Z,6.80
2023-04-23T22:09:34.158Z,6.90
2023-04-23T22:13:32.136Z,6.40
2023-04-23T22:17:32.266Z,6.90
2023-04-23T22:21:30.224Z,6.60
2023-04-23T22:25:29.229Z,6.70
2023-04-23T22:29:28.140Z,6.50
2023-04-23T22:33:26.210Z,6.20
2023-04-23T22:37:24.098Z,6.30
2023-04-23T22:41:22.167Z,6.10
2023-04-23T22:45:20.054Z,6.10
2023-04-23T22:49:21.098Z,6.00
2023-04-23T22:53:19.080Z,5.90
2023-04-23T22:57:17.114Z,5.30
2023-04-23T23:01:15.108Z,6.80
2023-04-23T23:05:13.244Z,6.60
2023-04-23T23:09:11.092Z,7.10
2023-04-23T23:13:09.185Z,6.00
2023-04-23T23:17:07.010Z,8.00
2023-04-23T23:21:05.107Z,7.20
2023-04-23T23:25:03.058Z,6.90
2023-04-23T23:29:01.034Z,7.70
2023-04-23T23:32:59.157Z,6.90
2023-04-23T23:36:58.092Z,9.50
2023-04-23T23:40:57.048Z,6.30
2023-04-23T23:44:56.039Z,8.50
2023-04-23T23:48:54.055Z,6.30
2023-04-23T23:52:52.138Z,7.00
2023-04-23T23:56:50.015Z,9.40
